This is the latest recevied weather packets stored in our database for station/object DB0LS-15. If no packets are shown the sender has not sent any weather packets the latest 10 day(s).
| Time | Temp. | Humidity | Pressure | Rain* | Wind** | Luminosity | Snow |
|---|---|---|---|---|---|---|---|
| 1777954557 | 14.44° C | 84% | 991.2 hPa | 0 mm | - | - | - |
| 1777953953 | 13.89° C | 87% | 991.3 hPa | 0 mm | - | - | - |
| 1777943146 | 16.11° C | 76% | 992.4 hPa | 0 mm | - | - | - |
| 1777941334 | 15.56° C | 79% | 992.5 hPa | 0 mm | - | - | - |
| 1777940730 | 15.56° C | 79% | 992.7 hPa | 0 mm | - | - | - |
| 1777940127 | 15° C | 80% | 992.7 hPa | 0 mm | - | - | - |
| 1777939523 | 15° C | 81% | 993 hPa | 0 mm | - | - | - |
| 1777937772 | 15° C | 80% | 993 hPa | 0 mm | - | - | - |
| 1777934753 | 16.11° C | 73% | 993 hPa | 0 mm | - | - | - |
| 1777932338 | 16.67° C | 71% | 993.4 hPa | 0 mm | - | - | - |
| 1777931130 | 18.33° C | 63% | 993.3 hPa | 0 mm | - | - | - |
| 1777926964 | 17.78° C | 66% | 993.4 hPa | 0 mm | - | - | - |
| 1777926360 | 17.78° C | 66% | 993.4 hPa | 0 mm | - | - | - |
| 1777924549 | 18.33° C | 64% | 993.2 hPa | 0 mm | - | - | - |
| 1777921530 | 18.89° C | 62% | 993.3 hPa | 0 mm | - | - | - |
| 1777917364 | 20° C | 56% | 993.1 hPa | 0 mm | - | - | - |
| 1777916156 | 21.11° C | 54% | 993.1 hPa | 0 mm | - | - | - |
| 1777914345 | 21.67° C | 54% | 993.1 hPa | 0 mm | - | - | - |
| 1777911326 | 21.67° C | 52% | 993.2 hPa | 0 mm | - | - | - |
| 1777909575 | 22.22° C | 51% | 993.3 hPa | 0 mm | - | - | - |
| 1777907160 | 22.22° C | 51% | 993.4 hPa | 0 mm | - | - | - |
| 1777904141 | 22.22° C | 47% | 993.8 hPa | 0 mm | - | - | - |
| 1777903537 | 22.22° C | 48% | 993.6 hPa | 0 mm | - | - | - |
| 1777902360 | 21.67° C | 48% | 994 hPa | 0 mm | - | - | - |
| 1777901152 | 22.22° C | 47% | 993.8 hPa | 0 mm | - | - | - |
* Rain latest hour (hover to see other rain measurements)
** Current wind speed in m/s (hover to see current wind gust speed)